Time;durP1;ratioP1;P1;durP2;ratioP2;P2;SDS_P1;SDS_P2;PMS_P1;PMS_P2;Temp;Humidity;BMP_temperature;BMP_pressure;BME280_temperature;BME280_humidity;BME280_pressure;Samples;Min_cycle;Max_cycle;Signal;HPM_P1;HPM_P2
2021/01/15 00:01:42;;;;;;;8.48;3.97;;;22.30;46.50;;;;;;5046331;28;45293;-47
2021/01/15 00:04:07;;;;;;;10.55;3.63;;;22.30;46.40;;;;;;5029036;28;46570;-47
2021/01/15 00:06:33;;;;;;;7.25;3.40;;;22.30;46.40;;;;;;5045756;28;45358;-47
2021/01/15 00:08:59;;;;;;;8.35;4.32;;;22.30;46.40;;;;;;5028505;28;45371;-47
2021/01/15 00:11:30;;;;;;;7.18;3.70;;;22.30;46.40;;;;;;5029607;28;45356;-47
2021/01/15 00:13:56;;;;;;;7.72;3.88;;;22.30;46.40;;;;;;5028344;28;45247;-47
2021/01/15 00:16:23;;;;;;;6.65;4.13;;;22.30;46.40;;;;;;5029042;28;45329;-47
2021/01/15 00:18:49;;;;;;;9.55;4.03;;;22.30;46.40;;;;;;5028844;28;45236;-47
2021/01/15 00:21:32;;;;;;;6.40;3.85;;;22.20;46.30;;;;;;5029142;28;45282;-47
2021/01/15 00:23:59;;;;;;;6.95;3.47;;;22.20;46.30;;;;;;5045488;28;46221;-46
2021/01/15 00:26:26;;;;;;;7.65;4.03;;;22.20;46.30;;;;;;5025260;28;45415;-47
2021/01/15 00:28:52;;;;;;;6.80;3.55;;;22.20;46.30;;;;;;5043274;28;45501;-46
2021/01/15 00:31:17;;;;;;;7.28;3.33;;;22.20;46.30;;;;;;5044210;28;45434;-47
2021/01/15 00:33:43;;;;;;;7.85;3.90;;;22.20;46.30;;;;;;5043708;28;46077;-48
2021/01/15 00:36:09;;;;;;;5.72;3.38;;;22.20;46.30;;;;;;5047001;28;45284;-48
2021/01/15 00:38:35;;;;;;;7.55;4.22;;;22.20;46.30;;;;;;5042280;28;45486;-47
2021/01/15 00:41:06;;;;;;;7.03;3.70;;;22.10;46.20;;;;;;5031589;28;45594;-47
2021/01/15 00:43:32;;;;;;;6.55;3.08;;;22.20;46.30;;;;;;5031915;28;46384;-47
2021/01/15 00:45:58;;;;;;;7.55;3.53;;;22.20;46.30;;;;;;5031844;28;45242;-47
2021/01/15 00:48:23;;;;;;;6.95;3.50;;;22.10;46.20;;;;;;5027945;28;45447;-47
2021/01/15 00:50:49;;;;;;;9.18;3.92;;;22.10;46.20;;;;;;5029152;28;45303;-48
2021/01/15 00:53:15;;;;;;;6.88;3.50;;;22.10;46.20;;;;;;5045098;28;45456;-48
2021/01/15 00:55:41;;;;;;;6.45;3.47;;;22.10;46.20;;;;;;5045043;28;45360;-48
2021/01/15 00:58:06;;;;;;;5.35;2.65;;;22.10;46.20;;;;;;5028500;28;45296;-47
2021/01/15 01:00:32;;;;;;;7.47;3.53;;;22.10;46.20;;;;;;5028700;28;45601;-48
2021/01/15 01:02:58;;;;;;;7.80;3.05;;;22.10;46.20;;;;;;5028136;28;46170;-48
2021/01/15 01:05:24;;;;;;;4.97;2.88;;;22.10;46.20;;;;;;5044923;28;45434;-48
2021/01/15 01:07:50;;;;;;;7.20;3.65;;;22.00;46.10;;;;;;5028401;28;45279;-48
2021/01/15 01:10:16;;;;;;;6.63;3.40;;;22.00;46.10;;;;;;5031057;28;45454;-48
2021/01/15 01:12:43;;;;;;;6.22;2.78;;;22.00;46.20;;;;;;5048040;28;45613;-47
2021/01/15 01:15:12;;;;;;;5.68;3.42;;;22.00;46.10;;;;;;5047716;28;45394;-47
2021/01/15 01:17:38;;;;;;;6.75;3.80;;;22.00;46.10;;;;;;5031085;28;45400;-47
2021/01/15 01:20:05;;;;;;;5.50;2.97;;;22.00;46.10;;;;;;5048870;28;45320;-47
2021/01/15 01:22:30;;;;;;;8.07;3.80;;;22.00;46.10;;;;;;5047714;28;45305;-47
2021/01/15 01:24:56;;;;;;;6.00;3.30;;;22.00;46.10;;;;;;5022566;28;45377;-47
2021/01/15 01:27:22;;;;;;;5.57;2.83;;;21.90;46.10;;;;;;5021583;28;45532;-47
2021/01/15 01:29:48;;;;;;;6.63;3.22;;;22.00;46.10;;;;;;5031192;28;45526;-47
2021/01/15 01:32:13;;;;;;;6.03;3.22;;;21.90;46.10;;;;;;5047429;28;45315;-47
2021/01/15 01:34:39;;;;;;;5.63;2.92;;;21.90;46.10;;;;;;5030260;28;45444;-47
2021/01/15 01:37:06;;;;;;;7.20;3.65;;;21.90;46.40;;;;;;5045743;28;45465;-46
2021/01/15 01:39:31;;;;;;;6.15;3.25;;;21.90;46.10;;;;;;5048577;28;45564;-46
2021/01/15 01:41:57;;;;;;;6.82;3.58;;;21.90;46.10;;;;;;5047150;28;46332;-47
2021/01/15 01:44:23;;;;;;;5.53;3.45;;;21.90;46.10;;;;;;5031003;28;45302;-47
2021/01/15 01:46:49;;;;;;;6.07;3.60;;;21.90;46.00;;;;;;5047559;28;45323;-47
2021/01/15 01:49:15;;;;;;;4.88;2.67;;;21.90;46.00;;;;;;5031548;28;45527;-47
2021/01/15 01:51:40;;;;;;;6.10;3.50;;;21.80;46.00;;;;;;5030099;28;45967;-47
2021/01/15 01:54:07;;;;;;;6.60;3.67;;;21.80;46.00;;;;;;5030486;28;45327;-47
2021/01/15 01:56:32;;;;;;;7.63;3.28;;;21.80;46.00;;;;;;5030991;28;45287;-47
2021/01/15 01:58:58;;;;;;;5.93;3.38;;;21.80;46.00;;;;;;5020465;28;45543;-47
2021/01/15 02:01:24;;;;;;;6.55;3.80;;;21.80;46.00;;;;;;5011045;28;45867;-47
2021/01/15 02:03:59;;;;;;;6.88;3.33;;;21.80;46.00;;;;;;5023452;28;45228;-47
2021/01/15 02:06:25;;;;;;;5.95;3.13;;;21.80;46.00;;;;;;5046785;28;45375;-47
2021/01/15 02:08:50;;;;;;;6.15;3.00;;;21.80;46.00;;;;;;5047330;28;45436;-47
2021/01/15 02:11:28;;;;;;;6.20;3.25;;;21.80;46.00;;;;;;5048278;28;45304;-47
2021/01/15 02:14:08;;;;;;;6.20;3.25;;;21.80;46.00;;;;;;5047989;28;45426;-47
2021/01/15 02:16:34;;;;;;;5.80;3.15;;;21.80;46.00;;;;;;5048792;28;45412;-47
2021/01/15 02:19:22;;;;;;;5.70;3.10;;;21.80;46.00;;;;;;5030689;28;45217;-47
2021/01/15 02:22:22;;;;;;;4.68;2.95;;;21.80;46.00;;;;;;5046412;28;45359;-47
2021/01/15 02:25:15;;;;;;;5.50;3.25;;;21.80;46.00;;;;;;5048489;28;45190;-48
2021/01/15 02:28:19;;;;;;;7.05;3.63;;;21.80;45.90;;;;;;5047954;28;45463;-47
2021/01/15 02:31:11;;;;;;;7.13;3.78;;;21.80;45.90;;;;;;5048359;28;45360;-48
2021/01/15 02:33:51;;;;;;;5.03;3.13;;;21.70;45.90;;;;;;5046719;28;46306;-48
2021/01/15 02:36:37;;;;;;;6.30;3.50;;;21.70;45.90;;;;;;5011274;28;45466;-47
2021/01/15 02:39:14;;;;;;;6.32;3.58;;;21.70;45.80;;;;;;5036155;28;45495;-47
2021/01/15 02:41:40;;;;;;;6.25;3.58;;;21.70;45.90;;;;;;5047496;28;45462;-47
2021/01/15 02:44:06;;;;;;;5.38;2.53;;;21.70;45.90;;;;;;5029645;28;46164;-47
2021/01/15 02:46:46;;;;;;;5.05;3.00;;;21.70;45.90;;;;;;5030053;28;45519;-47
2021/01/15 02:49:13;;;;;;;5.47;2.90;;;21.80;46.00;;;;;;5047267;28;45363;-47
2021/01/15 02:51:42;;;;;;;5.45;3.53;;;21.80;45.90;;;;;;5047369;28;45553;-47
2021/01/15 02:54:08;;;;;;;5.47;2.70;;;21.80;45.80;;;;;;5030146;28;45535;-47
2021/01/15 02:56:35;;;;;;;5.18;3.15;;;21.80;45.70;;;;;;5030004;28;45397;-47
2021/01/15 02:59:01;;;;;;;5.72;3.42;;;21.90;45.70;;;;;;5046428;28;45318;-47
2021/01/15 03:01:30;;;;;;;6.63;3.58;;;21.90;45.50;;;;;;5030332;28;45381;-47
2021/01/15 03:04:00;;;;;;;4.80;3.08;;;21.90;45.40;;;;;;5047620;28;45389;-47
2021/01/15 03:06:38;;;;;;;5.00;3.05;;;21.90;45.40;;;;;;5030362;28;45374;-47
2021/01/15 03:09:04;;;;;;;5.45;3.30;;;21.90;45.30;;;;;;5047549;28;45406;-46
2021/01/15 03:11:30;;;;;;;5.53;3.15;;;21.90;45.20;;;;;;5030187;28;45407;-46
2021/01/15 03:13:56;;;;;;;5.38;3.20;;;21.90;45.20;;;;;;5029350;28;45355;-48
2021/01/15 03:16:22;;;;;;;5.90;3.33;;;22.00;45.20;;;;;;5029704;28;45289;-48
2021/01/15 03:18:47;;;;;;;6.68;3.38;;;22.00;45.30;;;;;;5031609;28;45423;-47
2021/01/15 03:21:13;;;;;;;4.57;3.13;;;22.00;45.30;;;;;;5010459;28;45284;-48
2021/01/15 03:23:41;;;;;;;5.72;3.00;;;22.10;45.30;;;;;;5046209;28;46465;-47
2021/01/15 03:26:07;;;;;;;5.65;3.33;;;22.10;45.30;;;;;;5045930;28;45351;-47
2021/01/15 03:28:33;;;;;;;4.90;3.05;;;22.20;45.40;;;;;;5029672;28;45296;-47
2021/01/15 03:30:59;;;;;;;5.30;2.78;;;22.20;45.40;;;;;;5030261;28;45320;-47
2021/01/15 03:33:24;;;;;;;5.93;3.67;;;22.30;45.40;;;;;;5046442;28;45204;-47
2021/01/15 03:35:50;;;;;;;4.72;2.80;;;22.30;45.30;;;;;;5029135;28;45345;-47
2021/01/15 03:38:16;;;;;;;7.05;3.03;;;22.30;45.20;;;;;;5029628;28;45457;-48
2021/01/15 03:40:43;;;;;;;7.00;3.67;;;22.40;45.30;;;;;;5030058;28;45396;-47
2021/01/15 03:43:19;;;;;;;5.22;3.25;;;22.40;45.20;;;;;;5045824;28;46157;-47
2021/01/15 03:45:45;;;;;;;5.68;3.10;;;22.50;45.10;;;;;;5045994;28;45390;-48
2021/01/15 03:48:12;;;;;;;4.53;2.88;;;22.50;45.10;;;;;;5029544;28;45305;-46
2021/01/15 03:50:38;;;;;;;8.43;3.25;;;22.50;45.00;;;;;;5029757;28;45359;-50
2021/01/15 03:53:03;;;;;;;5.47;2.72;;;22.60;45.00;;;;;;5045980;28;45352;-52
2021/01/15 03:55:29;;;;;;;4.68;2.70;;;22.60;45.00;;;;;;5029725;28;45274;-47
2021/01/15 03:57:55;;;;;;;4.50;2.50;;;22.60;44.90;;;;;;5046100;28;45386;-52
2021/01/15 04:00:21;;;;;;;6.82;3.10;;;22.60;44.80;;;;;;5029716;28;45586;-47
2021/01/15 04:02:47;;;;;;;5.40;3.20;;;22.60;44.80;;;;;;5029202;28;46522;-48
2021/01/15 04:05:13;;;;;;;5.88;2.78;;;22.70;44.70;;;;;;5029244;28;45325;-48
2021/01/15 04:07:40;;;;;;;5.97;2.95;;;22.70;44.70;;;;;;5029378;28;45402;-48
2021/01/15 04:10:10;;;;;;;7.47;3.15;;;22.70;44.60;;;;;;5028826;28;45507;-47
2021/01/15 04:12:40;;;;;;;6.18;3.75;;;22.80;44.70;;;;;;5050541;28;45284;-48
2021/01/15 04:15:16;;;;;;;6.00;2.90;;;22.80;44.60;;;;;;5048823;28;45383;-48
2021/01/15 04:17:42;;;;;;;6.15;2.85;;;22.80;44.50;;;;;;5049373;28;45367;-47
2021/01/15 04:20:09;;;;;;;5.93;2.85;;;22.80;44.50;;;;;;5033006;28;45640;-47
2021/01/15 04:22:39;;;;;;;5.10;2.97;;;22.90;44.50;;;;;;5032369;28;45463;-47
2021/01/15 04:25:06;;;;;;;5.60;2.92;;;22.90;44.50;;;;;;5049123;28;45333;-48
2021/01/15 04:27:31;;;;;;;4.30;2.78;;;22.90;44.40;;;;;;5032485;28;45364;-47
2021/01/15 04:29:58;;;;;;;4.43;2.60;;;23.00;44.40;;;;;;5032767;28;45363;-47
2021/01/15 04:32:23;;;;;;;6.18;3.15;;;23.00;44.30;;;;;;5032181;28;45395;-47
2021/01/15 04:34:49;;;;;;;5.55;2.78;;;23.10;44.30;;;;;;5031849;28;45278;-47
2021/01/15 04:37:15;;;;;;;5.47;3.40;;;23.10;44.30;;;;;;5049019;28;45366;-48
2021/01/15 04:39:41;;;;;;;5.10;2.70;;;23.10;44.30;;;;;;5031396;28;45505;-48
2021/01/15 04:42:07;;;;;;;4.47;2.67;;;23.10;44.20;;;;;;5031823;28;45677;-48
2021/01/15 04:44:33;;;;;;;5.32;2.75;;;23.10;44.20;;;;;;5032130;28;45323;-48
2021/01/15 04:46:59;;;;;;;5.97;2.90;;;23.10;44.10;;;;;;5032071;28;45359;-49
2021/01/15 04:49:25;;;;;;;5.25;2.78;;;23.10;44.10;;;;;;5032644;28;45400;-48
2021/01/15 04:51:55;;;;;;;4.53;2.53;;;23.10;44.00;;;;;;5031904;28;45372;-48
2021/01/15 04:54:21;;;;;;;6.95;2.70;;;23.10;44.10;;;;;;5048515;28;45195;-48
2021/01/15 04:56:55;;;;;;;5.20;2.50;;;23.10;44.10;;;;;;5032037;28;45250;-48
2021/01/15 04:59:21;;;;;;;6.43;2.85;;;23.20;44.10;;;;;;5049215;28;45490;-48
2021/01/15 05:01:48;;;;;;;6.07;2.70;;;23.20;44.10;;;;;;5031251;28;46662;-47
2021/01/15 05:04:14;;;;;;;3.63;2.55;;;23.20;44.00;;;;;;5031847;28;45494;-47
2021/01/15 05:06:51;;;;;;;6.07;2.40;;;23.20;44.00;;;;;;5048628;28;45435;-47
2021/01/15 05:09:21;;;;;;;4.97;2.72;;;23.20;44.00;;;;;;5028441;28;45359;-48
2021/01/15 05:11:47;;;;;;;4.53;2.13;;;23.20;44.00;;;;;;5028159;28;45313;-48
2021/01/15 05:14:14;;;;;;;4.65;2.63;;;23.20;44.00;;;;;;5047882;28;45288;-48
2021/01/15 05:16:41;;;;;;;4.40;2.60;;;23.10;44.50;;;;;;5031850;28;45311;-48
2021/01/15 05:19:08;;;;;;;4.82;2.75;;;23.20;43.90;;;;;;5031091;28;45455;-48
2021/01/15 05:21:34;;;;;;;4.88;2.58;;;23.10;43.80;;;;;;5030349;28;46393;-47
2021/01/15 05:24:00;;;;;;;5.40;2.97;;;23.20;43.80;;;;;;5031536;28;45287;-48
2021/01/15 05:26:26;;;;;;;4.78;2.80;;;23.20;43.80;;;;;;5022312;28;45197;-48
2021/01/15 05:28:52;;;;;;;4.55;3.00;;;23.20;43.80;;;;;;5014980;28;45671;-48
2021/01/15 05:31:18;;;;;;;5.85;2.58;;;23.20;43.70;;;;;;5030400;28;45398;-48
2021/01/15 05:34:03;;;;;;;3.58;2.40;;;23.20;44.30;;;;;;5029264;28;45444;-48
2021/01/15 05:36:29;;;;;;;4.60;2.70;;;23.30;43.60;;;;;;5038420;28;45458;-48
2021/01/15 05:39:12;;;;;;;5.03;2.92;;;23.30;43.70;;;;;;5046978;28;45600;-47
2021/01/15 05:41:38;;;;;;;5.13;2.78;;;23.30;43.60;;;;;;5039742;28;45263;-48
2021/01/15 05:44:04;;;;;;;5.00;2.78;;;23.30;43.60;;;;;;5027531;28;45342;-48
2021/01/15 05:46:30;;;;;;;4.60;2.50;;;23.30;43.50;;;;;;5027757;28;45317;-48
2021/01/15 05:48:58;;;;;;;5.55;2.70;;;23.30;43.50;;;;;;5029767;28;45522;-48
2021/01/15 05:51:25;;;;;;;5.20;3.35;;;23.30;43.50;;;;;;5011058;28;47191;-47
2021/01/15 05:53:51;;;;;;;4.30;2.22;;;23.40;43.50;;;;;;5027690;28;45324;-48
2021/01/15 05:56:20;;;;;;;11.52;3.13;;;23.40;43.50;;;;;;5029798;28;45441;-47
2021/01/15 05:59:05;;;;;;;4.93;2.70;;;23.40;43.40;;;;;;5020521;28;45433;-48
2021/01/15 06:01:43;;;;;;;5.03;2.85;;;23.40;43.30;;;;;;5045802;28;45401;-49
2021/01/15 06:04:09;;;;;;;5.00;3.10;;;23.40;43.30;;;;;;5047238;28;45362;-48
2021/01/15 06:06:35;;;;;;;5.03;2.90;;;23.40;43.20;;;;;;5045747;28;45478;-48
2021/01/15 06:09:02;;;;;;;5.10;2.78;;;23.50;43.20;;;;;;5045892;28;45606;-49
2021/01/15 06:11:28;;;;;;;4.18;2.53;;;23.50;43.30;;;;;;5045982;28;45209;-48
2021/01/15 06:13:54;;;;;;;5.10;2.83;;;23.50;43.30;;;;;;5045618;28;45285;-47
2021/01/15 06:16:19;;;;;;;4.60;2.80;;;23.50;43.20;;;;;;5045846;28;45379;-47
2021/01/15 06:18:59;;;;;;;4.30;2.55;;;23.60;43.30;;;;;;5046576;28;45342;-47
2021/01/15 06:21:34;;;;;;;3.55;2.22;;;23.60;43.40;;;;;;5055663;28;45482;-48
2021/01/15 06:24:03;;;;;;;4.63;3.05;;;23.60;43.30;;;;;;5043673;28;45699;-47
2021/01/15 06:26:38;;;;;;;4.97;2.80;;;23.70;43.40;;;;;;5047386;28;45404;-48
2021/01/15 06:29:05;;;;;;;3.92;2.30;;;23.70;43.40;;;;;;5045156;28;45534;-47
2021/01/15 06:31:43;;;;;;;5.35;2.50;;;23.70;43.30;;;;;;5048126;28;46303;-48
2021/01/15 06:34:09;;;;;;;4.22;2.45;;;23.70;43.30;;;;;;5046161;28;45313;-47
2021/01/15 06:36:48;;;;;;;5.65;2.22;;;23.70;43.30;;;;;;5045400;28;45336;-47
2021/01/15 06:39:15;;;;;;;5.47;2.40;;;23.70;43.40;;;;;;5048500;28;45432;-48
2021/01/15 06:41:41;;;;;;;5.72;3.22;;;23.70;43.40;;;;;;5046596;28;46300;-46
2021/01/15 06:44:11;;;;;;;9.40;4.20;;;23.70;43.40;;;;;;5046971;28;45542;-46
2021/01/15 06:46:42;;;;;;;7.80;4.60;;;23.70;42.50;;;;;;5037946;28;45557;-46
2021/01/15 06:49:12;;;;;;;7.72;4.90;;;23.70;41.90;;;;;;5017885;28;45435;-46
2021/01/15 06:51:38;;;;;;;9.48;4.75;;;23.70;41.70;;;;;;5045947;28;45693;-46
2021/01/15 06:54:05;;;;;;;8.65;4.43;;;23.70;41.70;;;;;;5029899;28;45312;-46
2021/01/15 06:56:33;;;;;;;7.65;4.97;;;23.70;40.80;;;;;;5029254;28;45626;-47
2021/01/15 06:58:59;;;;;;;8.30;4.90;;;23.70;41.20;;;;;;5030701;28;45491;-46
2021/01/15 07:02:09;;;;;;;10.45;4.20;;;23.60;41.10;;;;;;5029514;28;45406;-46
2021/01/15 07:05:08;;;;;;;9.13;4.03;;;23.60;41.40;;;;;;5007502;28;45597;-50
2021/01/15 07:07:33;;;;;;;12.85;4.28;;;23.60;42.00;;;;;;5023508;28;45452;-52
2021/01/15 07:10:00;;;;;;;14.23;5.38;;;23.60;42.20;;;;;;5019867;28;45629;-49
2021/01/15 07:12:26;;;;;;;20.20;5.57;;;23.60;42.20;;;;;;5041430;28;45497;-49
2021/01/15 07:14:54;;;;;;;16.02;5.43;;;23.70;42.40;;;;;;5028357;28;45302;-50
2021/01/15 07:17:32;;;;;;;13.52;5.20;;;23.70;42.30;;;;;;5046963;28;45706;-49
2021/01/15 07:20:05;;;;;;;13.27;6.13;;;23.70;42.20;;;;;;5047283;28;45387;-49
2021/01/15 07:22:59;;;;;;;10.50;4.85;;;23.80;42.20;;;;;;5028652;28;46170;-48
2021/01/15 07:25:25;;;;;;;10.35;5.10;;;23.80;42.10;;;;;;5007721;28;45506;-48
2021/01/15 07:27:51;;;;;;;9.75;5.45;;;23.80;42.10;;;;;;5009673;28;45329;-49
2021/01/15 07:30:24;;;;;;;11.77;6.30;;;23.90;42.10;;;;;;5025267;28;45511;-48
2021/01/15 07:32:51;;;;;;;8.85;5.75;;;23.90;42.00;;;;;;5029300;28;46515;-50
2021/01/15 07:35:18;;;;;;;9.40;5.47;;;23.90;42.00;;;;;;5045407;28;45406;-49
2021/01/15 07:37:44;;;;;;;8.18;4.90;;;23.90;41.90;;;;;;5029696;28;45414;-50
2021/01/15 07:40:16;;;;;;;9.05;4.60;;;23.90;41.90;;;;;;5023769;28;45576;-49
2021/01/15 07:42:45;;;;;;;10.35;4.40;;;24.00;41.90;;;;;;5026097;28;46284;-49
2021/01/15 07:45:26;;;;;;;11.35;5.38;;;23.90;41.80;;;;;;5046113;28;45314;-50
2021/01/15 07:48:04;;;;;;;7.18;4.63;;;24.00;41.70;;;;;;5050718;28;45200;-50
2021/01/15 07:50:31;;;;;;;8.50;4.88;;;24.00;41.60;;;;;;5050006;28;45526;-50
2021/01/15 07:53:06;;;;;;;9.75;4.40;;;24.00;41.70;;;;;;5047199;28;45593;-49
2021/01/15 07:55:57;;;;;;;10.00;4.60;;;24.00;41.50;;;;;;5037382;28;45506;-49
2021/01/15 07:58:24;;;;;;;12.10;4.85;;;24.10;41.30;;;;;;5053604;28;45506;-49
2021/01/15 08:00:50;;;;;;;9.48;4.90;;;24.00;41.40;;;;;;5042464;28;45509;-47
2021/01/15 08:03:16;;;;;;;8.73;4.65;;;24.10;41.40;;;;;;5028439;28;45350;-49
2021/01/15 08:05:43;;;;;;;8.00;4.78;;;24.10;41.20;;;;;;5029286;28;45285;-48
2021/01/15 08:08:16;;;;;;;8.10;4.57;;;24.10;41.20;;;;;;5030610;28;45498;-53
2021/01/15 08:10:50;;;;;;;8.30;4.03;;;24.20;41.20;;;;;;5043774;28;45529;-48
2021/01/15 08:13:26;;;;;;;6.78;3.97;;;24.20;41.60;;;;;;5028824;28;45416;-47
2021/01/15 08:15:52;;;;;;;10.50;4.35;;;24.20;41.70;;;;;;5012591;28;45342;-48
2021/01/15 08:18:18;;;;;;;6.45;4.05;;;24.20;41.80;;;;;;5028964;28;45286;-48
2021/01/15 08:20:45;;;;;;;8.20;4.15;;;24.20;41.90;;;;;;5013034;28;45626;-49
2021/01/15 08:23:21;;;;;;;8.77;3.63;;;24.30;41.90;;;;;;5046498;28;46503;-49
2021/01/15 08:25:51;;;;;;;5.78;3.70;;;24.30;42.20;;;;;;5048660;28;45307;-48
2021/01/15 08:28:17;;;;;;;6.70;3.78;;;24.30;42.00;;;;;;5049096;28;45390;-49
2021/01/15 08:31:06;;;;;;;6.15;3.85;;;24.40;42.00;;;;;;5045935;28;45438;-49
2021/01/15 08:33:32;;;;;;;7.35;4.05;;;24.40;42.00;;;;;;5029899;28;45434;-49
2021/01/15 08:35:59;;;;;;;6.60;3.78;;;24.40;42.10;;;;;;5064316;28;45465;-49
2021/01/15 08:38:32;;;;;;;10.88;4.10;;;24.40;42.10;;;;;;5049192;28;45391;-50
2021/01/15 08:40:59;;;;;;;6.22;3.92;;;24.30;42.00;;;;;;5049177;28;45533;-50
2021/01/15 08:43:25;;;;;;;8.30;4.28;;;24.30;40.80;;;;;;5048488;28;45580;-48
2021/01/15 08:45:52;;;;;;;9.73;4.80;;;24.30;40.90;;;;;;5048543;28;45465;-48
2021/01/15 08:48:18;;;;;;;7.35;4.22;;;24.30;41.00;;;;;;5029926;28;45336;-49
2021/01/15 08:50:44;;;;;;;7.88;4.03;;;24.30;41.20;;;;;;5027824;28;45654;-49
2021/01/15 08:53:10;;;;;;;9.55;3.83;;;24.40;41.50;;;;;;5045331;28;45844;-50
2021/01/15 08:55:37;;;;;;;8.95;4.50;;;24.40;41.70;;;;;;5063979;28;45370;-50
2021/01/15 08:58:09;;;;;;;6.25;3.85;;;24.40;41.70;;;;;;5046178;28;45327;-50
2021/01/15 09:00:35;;;;;;;6.70;3.30;;;24.30;41.70;;;;;;5048626;28;45326;-50
2021/01/15 09:03:03;;;;;;;8.40;4.07;;;24.30;41.80;;;;;;5039261;28;45421;-48
2021/01/15 09:05:29;;;;;;;8.18;3.10;;;24.30;42.10;;;;;;5040487;28;45542;-50
2021/01/15 09:07:54;;;;;;;7.05;3.88;;;24.30;41.90;;;;;;5031732;28;45369;-50
2021/01/15 09:10:20;;;;;;;8.63;4.20;;;24.30;41.80;;;;;;5032001;28;45227;-49
2021/01/15 09:12:47;;;;;;;7.88;4.68;;;24.40;41.70;;;;;;5042894;28;45490;-49
2021/01/15 09:15:23;;;;;;;6.50;3.67;;;24.40;41.60;;;;;;5047411;28;45429;-50
2021/01/15 09:17:49;;;;;;;8.02;4.13;;;24.40;41.50;;;;;;5031632;28;45513;-51
2021/01/15 09:20:17;;;;;;;9.20;5.07;;;24.40;41.50;;;;;;5031643;28;45771;-49
2021/01/15 09:22:43;;;;;;;8.32;4.15;;;24.30;41.30;;;;;;5045251;28;47095;-48
2021/01/15 09:25:13;;;;;;;6.32;4.03;;;24.40;41.20;;;;;;5045966;28;45482;-48
2021/01/15 09:27:39;;;;;;;9.00;4.03;;;24.30;41.30;;;;;;5047798;28;45301;-48
2021/01/15 09:30:05;;;;;;;7.95;4.63;;;24.40;41.40;;;;;;5047032;28;45620;-48
2021/01/15 09:32:31;;;;;;;6.63;3.75;;;24.40;41.50;;;;;;5044188;28;47246;-48
2021/01/15 09:34:56;;;;;;;6.72;3.30;;;24.40;41.60;;;;;;5040086;28;45486;-48
2021/01/15 09:37:22;;;;;;;7.75;3.83;;;24.40;41.60;;;;;;5044133;28;45536;-50
2021/01/15 09:39:48;;;;;;;6.38;3.95;;;24.40;41.60;;;;;;5045147;28;45439;-51
2021/01/15 09:42:14;;;;;;;7.80;4.50;;;24.40;41.70;;;;;;5027165;28;45493;-48
2021/01/15 09:44:40;;;;;;;6.13;4.05;;;24.50;41.70;;;;;;5045036;28;45436;-49
2021/01/15 09:47:06;;;;;;;7.22;3.63;;;24.50;41.60;;;;;;5045863;28;45434;-49
2021/01/15 09:49:32;;;;;;;9.50;4.03;;;24.40;41.50;;;;;;5045762;28;45567;-49
2021/01/15 09:51:58;;;;;;;5.57;3.70;;;24.40;41.40;;;;;;5045371;28;46168;-48
2021/01/15 09:54:23;;;;;;;9.30;4.53;;;24.40;41.30;;;;;;5031883;28;45529;-49
2021/01/15 09:56:49;;;;;;;11.05;4.38;;;24.40;41.40;;;;;;5035958;28;45355;-48
2021/01/15 09:59:16;;;;;;;8.30;3.80;;;24.30;41.40;;;;;;5027542;28;45531;-49
2021/01/15 10:01:42;;;;;;;7.43;4.30;;;24.40;41.60;;;;;;5041825;28;45570;-48
2021/01/15 10:04:09;;;;;;;8.48;4.25;;;24.40;41.70;;;;;;5043532;28;45504;-48
2021/01/15 10:06:38;;;;;;;7.68;3.90;;;24.50;41.80;;;;;;5041174;28;45641;-49
2021/01/15 10:09:04;;;;;;;6.75;3.85;;;24.50;42.00;;;;;;5045512;28;45550;-49
2021/01/15 10:11:34;;;;;;;7.78;4.07;;;24.60;42.00;;;;;;5046333;28;46397;-49
2021/01/15 10:14:01;;;;;;;7.53;3.97;;;24.60;42.10;;;;;;5042349;28;45436;-52
2021/01/15 10:16:27;;;;;;;7.32;4.18;;;24.60;42.10;;;;;;5045243;28;45527;-49
2021/01/15 10:18:53;;;;;;;7.90;3.50;;;24.60;42.00;;;;;;5046665;28;45404;-49
2021/01/15 10:21:23;;;;;;;13.93;3.92;;;24.70;42.00;;;;;;5046489;28;46235;-49
2021/01/15 10:23:51;;;;;;;13.38;3.78;;;24.70;41.80;;;;;;5043758;28;45391;-48
2021/01/15 10:26:23;;;;;;;7.85;3.30;;;24.70;42.00;;;;;;5040659;28;45503;-49
2021/01/15 10:28:56;;;;;;;6.10;3.35;;;24.70;42.10;;;;;;5047445;28;45400;-49
2021/01/15 10:31:35;;;;;;;7.50;3.95;;;24.60;42.20;;;;;;5015226;28;45394;-49
2021/01/15 10:34:03;;;;;;;7.97;3.90;;;24.50;42.20;;;;;;5027550;28;45482;-49
2021/01/15 10:36:29;;;;;;;6.35;3.50;;;24.50;42.20;;;;;;5074550;28;45430;-50
2021/01/15 10:38:55;;;;;;;7.05;3.92;;;24.40;42.30;;;;;;5047337;28;45582;-49
2021/01/15 10:41:31;;;;;;;6.40;3.30;;;24.50;42.40;;;;;;5029931;28;45435;-50
2021/01/15 10:43:58;;;;;;;6.57;3.47;;;24.50;42.50;;;;;;5048176;28;45329;-49
2021/01/15 10:46:31;;;;;;;8.20;3.90;;;24.40;42.50;;;;;;5024469;28;45519;-49
2021/01/15 10:48:57;;;;;;;6.15;4.00;;;24.50;42.70;;;;;;5048355;28;45643;-49
2021/01/15 10:51:22;;;;;;;5.65;3.30;;;24.40;42.70;;;;;;5044288;28;46431;-48
2021/01/15 10:53:48;;;;;;;6.45;3.38;;;24.40;42.70;;;;;;5030137;28;45301;-49
2021/01/15 10:56:14;;;;;;;5.20;3.58;;;24.50;42.60;;;;;;5029677;28;45425;-49
2021/01/15 10:58:40;;;;;;;6.07;2.88;;;24.50;42.60;;;;;;5025329;28;45288;-49
2021/01/15 11:01:05;;;;;;;11.35;4.05;;;24.60;42.50;;;;;;5026950;28;46393;-49
2021/01/15 11:03:31;;;;;;;6.22;3.75;;;24.60;42.40;;;;;;5025211;28;45349;-48
2021/01/15 11:05:57;;;;;;;5.25;3.00;;;24.60;42.30;;;;;;5029783;28;45323;-48
2021/01/15 11:08:22;;;;;;;5.25;3.35;;;24.70;42.20;;;;;;5047039;28;45556;-48
2021/01/15 11:10:48;;;;;;;5.93;3.20;;;24.60;42.10;;;;;;5046216;28;46243;-47
2021/01/15 11:13:14;;;;;;;5.93;3.33;;;24.70;42.10;;;;;;5046463;28;45660;-47
2021/01/15 11:15:40;;;;;;;7.63;3.67;;;24.70;42.10;;;;;;5029464;28;45787;-49
2021/01/15 11:18:06;;;;;;;5.90;3.15;;;24.70;42.10;;;;;;5036370;28;45536;-48
2021/01/15 11:20:31;;;;;;;5.18;3.17;;;24.70;42.10;;;;;;5026512;28;45348;-48
2021/01/15 11:22:57;;;;;;;6.10;3.25;;;24.70;42.10;;;;;;5027837;28;45461;-48
2021/01/15 11:25:23;;;;;;;5.43;3.22;;;24.60;42.90;;;;;;5045638;28;45532;-47
2021/01/15 11:27:48;;;;;;;6.35;3.40;;;24.50;43.80;;;;;;5029662;28;45423;-47
2021/01/15 11:30:15;;;;;;;5.18;3.53;;;24.50;43.60;;;;;;5046027;28;45439;-47
2021/01/15 11:32:40;;;;;;;5.88;3.28;;;24.50;43.00;;;;;;5029813;28;45308;-47
2021/01/15 11:35:07;;;;;;;4.78;2.97;;;24.50;42.80;;;;;;5013122;28;45438;-47
2021/01/15 11:37:35;;;;;;;6.18;3.30;;;24.50;42.60;;;;;;5031957;28;45454;-47
2021/01/15 11:40:03;;;;;;;5.85;3.17;;;24.50;42.50;;;;;;5009782;28;45280;-48
2021/01/15 11:42:29;;;;;;;6.70;3.35;;;24.60;42.60;;;;;;5031093;28;45361;-49
2021/01/15 11:44:54;;;;;;;4.97;3.22;;;24.50;42.70;;;;;;5026234;28;45430;-48
2021/01/15 11:47:20;;;;;;;6.20;3.42;;;24.50;42.70;;;;;;5029003;28;45383;-48
2021/01/15 11:49:46;;;;;;;4.95;2.90;;;24.50;43.10;;;;;;5023682;28;46620;-48
2021/01/15 11:52:12;;;;;;;6.97;3.15;;;24.50;43.30;;;;;;5035760;28;45368;-48
2021/01/15 11:54:37;;;;;;;4.18;2.88;;;24.60;42.90;;;;;;5026849;28;45478;-48
2021/01/15 11:57:03;;;;;;;8.15;3.00;;;24.50;42.70;;;;;;5026145;28;45470;-47
2021/01/15 11:59:29;;;;;;;7.57;3.97;;;24.60;42.80;;;;;;5042040;28;46410;-49
2021/01/15 12:01:58;;;;;;;6.10;3.75;;;24.50;42.00;;;;;;5044103;28;45399;-48
2021/01/15 12:04:24;;;;;;;5.63;3.78;;;24.50;42.10;;;;;;5045877;28;45758;-48
2021/01/15 12:06:56;;;;;;;6.20;3.85;;;24.60;41.70;;;;;;5039060;28;45418;-48
2021/01/15 12:09:22;;;;;;;6.32;3.17;;;24.60;41.50;;;;;;5050301;28;45679;-49
2021/01/15 12:11:48;;;;;;;5.15;2.97;;;24.60;41.60;;;;;;5025194;28;45376;-49
2021/01/15 12:14:14;;;;;;;7.07;4.07;;;24.50;41.80;;;;;;5020394;28;45453;-51
2021/01/15 12:16:40;;;;;;;7.72;3.83;;;24.50;41.80;;;;;;5027578;28;45579;-50
2021/01/15 12:19:07;;;;;;;5.78;3.63;;;24.50;41.70;;;;;;5022978;28;46087;-50
2021/01/15 12:21:36;;;;;;;7.93;3.47;;;24.60;41.60;;;;;;5038765;28;45333;-50
2021/01/15 12:24:03;;;;;;;7.80;3.20;;;24.70;41.60;;;;;;5026589;28;45429;-50
2021/01/15 12:26:31;;;;;;;5.47;3.55;;;24.70;41.50;;;;;;5029017;28;45459;-49
2021/01/15 12:28:57;;;;;;;6.20;3.72;;;24.80;41.40;;;;;;5044300;28;46209;-49
2021/01/15 12:31:23;;;;;;;6.65;3.70;;;24.90;41.40;;;;;;5043946;28;45398;-49
2021/01/15 12:33:48;;;;;;;5.95;3.78;;;24.90;41.20;;;;;;5044161;28;46631;-48
2021/01/15 12:36:14;;;;;;;6.00;3.15;;;24.90;41.10;;;;;;5047174;28;45498;-48
2021/01/15 12:38:40;;;;;;;5.50;3.05;;;25.00;41.10;;;;;;5045736;28;45490;-48
2021/01/15 12:41:05;;;;;;;6.32;3.30;;;25.00;41.00;;;;;;5046715;28;45394;-48
2021/01/15 12:43:31;;;;;;;8.32;3.22;;;25.10;41.00;;;;;;5046944;28;45362;-48
2021/01/15 12:45:57;;;;;;;7.32;2.83;;;25.10;40.80;;;;;;5047446;28;45454;-49
2021/01/15 12:48:22;;;;;;;5.15;2.88;;;25.10;40.80;;;;;;5045288;28;45415;-48
2021/01/15 12:50:48;;;;;;;5.85;2.90;;;25.10;40.70;;;;;;5052222;28;45535;-48
2021/01/15 12:53:14;;;;;;;7.78;2.85;;;25.10;40.70;;;;;;5030276;28;45360;-51